首页
METAR-TAF:

METAR-TAF

机场 :

莫吉廖夫機場

莫吉廖夫, 白俄罗斯

纬度: 53-57-18N, 经度: 030-05-42E, 海拔: 194米

当前天气观测

该预报发布于9小时和47分钟前的13:00 UTC
风速10节,风向西转西南,有时为16节阵风
温度 28°C
湿度 32%
气压 1019 hPa
能见度10公里或以上
1500米以下无云,无积雨云

METAR: UMOO 261300Z 24005G08MPS CAVOK 28/10 Q1019 R13/CLRD// NOSIG

时间: 01:47 (22:47 UTC)

预报

该预报发布于11小时和42分钟前的11:05 UTC
预报有效从26日的 12点(UTC)到 26日的 21点(UTC)
风速8节,风向西,有时为17节阵风
能见度10公里或以上
散云层高于2500英尺
短暂存在
从 26日的 12点(UTC)到 26日的 21点(UTC)
风速12节,风向西南,有时为21节阵风

TAF: UMOO 261105Z 2612/2621 26004G09MPS 9999 SCT025 TEMPO 2612/2621 22006G11MPS

超过4000个机场的气象观测和天气预报(METAR&TAF报告)。

可查询的气象台以黄色和红色小点在地图上表示。

将鼠标移到小点上方,可查看气象台名称。

然后点击查看天气观测和预报。

如需切换地图:点击带黑十字的绿色按钮放大地图;点击带横线的绿色按钮缩小地图;或者点击绿色箭头查看邻近地区的地图。


METAR-TAF: